createdAt,value
2022-08-20T00:04:52.482Z,45.58
2022-08-20T00:09:55.946Z,45.84
2022-08-20T00:14:59.496Z,46.07
2022-08-20T00:20:05.254Z,45.45
2022-08-20T00:25:09.906Z,45.61
2022-08-20T00:30:14.823Z,46.66
2022-08-20T00:35:23.649Z,46.08
2022-08-20T00:40:36.980Z,45.76
2022-08-20T00:45:40.493Z,46.91
2022-08-20T00:50:45.510Z,46.53
2022-08-20T00:55:48.990Z,46.35
2022-08-20T01:00:52.907Z,46.43
2022-08-20T01:06:11.637Z,46.19
2022-08-20T01:11:16.745Z,46.00
2022-08-20T01:16:23.207Z,45.94
2022-08-20T01:21:31.283Z,46.25
2022-08-20T01:26:38.941Z,45.20
2022-08-20T01:31:43.207Z,45.28
2022-08-20T01:36:49.068Z,44.86
2022-08-20T01:42:03.348Z,47.46
2022-08-20T01:47:15.184Z,45.62
2022-08-20T01:52:25.912Z,46.50
2022-08-20T01:57:30.871Z,47.02
2022-08-20T02:02:34.311Z,47.39
2022-08-20T02:07:38.498Z,47.55
2022-08-20T02:12:43.328Z,46.61
2022-08-20T02:17:47.083Z,46.40
2022-08-20T02:22:52.979Z,46.81
2022-08-20T02:28:02.447Z,46.68
2022-08-20T02:33:08.040Z,46.29
2022-08-20T02:38:12.220Z,46.39
2022-08-20T02:43:18.294Z,44.88
2022-08-20T02:48:23.040Z,46.72
2022-08-20T02:53:27.158Z,45.49
2022-08-20T02:58:32.044Z,46.69
2022-08-20T03:03:35.846Z,46.00
2022-08-20T03:08:40.051Z,45.46
2022-08-20T03:13:45.268Z,44.05
2022-08-20T03:18:52.076Z,45.31
2022-08-20T03:23:55.850Z,44.55
2022-08-20T03:29:00.671Z,45.01
2022-08-20T03:34:04.250Z,44.06
2022-08-20T03:39:13.077Z,43.66
2022-08-20T03:44:18.458Z,45.26
2022-08-20T03:49:23.932Z,46.24
2022-08-20T03:54:31.797Z,43.93
2022-08-20T03:59:36.835Z,44.07
2022-08-20T04:04:40.855Z,43.35
2022-08-20T04:09:44.871Z,43.50
2022-08-20T04:14:49.806Z,45.77
2022-08-20T04:19:53.566Z,43.52
2022-08-20T04:24:57.056Z,44.19
2022-08-20T04:30:03.112Z,43.91
2022-08-20T04:35:08.092Z,44.19
2022-08-20T04:40:36.418Z,43.14
2022-08-20T04:45:41.494Z,43.87
2022-08-20T04:50:47.564Z,44.64
2022-08-20T04:55:52.011Z,46.79
2022-08-20T05:01:01.211Z,45.51
2022-08-20T05:06:06.049Z,44.18
2022-08-20T05:11:36.085Z,45.46
2022-08-20T05:16:38.696Z,46.53
2022-08-20T05:21:42.641Z,45.50
2022-08-20T05:26:46.564Z,45.77
2022-08-20T05:31:51.449Z,46.72
2022-08-20T05:36:55.328Z,47.69
2022-08-20T05:41:59.180Z,47.38
2022-08-20T05:47:04.497Z,46.86
2022-08-20T05:52:07.928Z,46.80
2022-08-20T05:57:11.474Z,46.29
2022-08-20T06:02:34.086Z,47.36
2022-08-20T06:07:38.562Z,48.02
2022-08-20T06:12:44.381Z,47.99
2022-08-20T06:17:53.650Z,46.99
2022-08-20T06:23:16.827Z,46.47
2022-08-20T06:28:20.642Z,49.73
2022-08-20T06:33:26.039Z,47.71
2022-08-20T06:38:29.528Z,47.92
2022-08-20T06:43:33.933Z,48.56
2022-08-20T06:48:38.958Z,48.43
2022-08-20T06:53:42.456Z,50.82
2022-08-20T06:58:45.924Z,51.72
2022-08-20T07:03:54.739Z,47.02
2022-08-20T07:08:59.406Z,49.35
2022-08-20T07:14:05.379Z,45.42
2022-08-20T07:19:10.295Z,45.32
2022-08-20T07:24:13.752Z,44.43
2022-08-20T07:29:17.212Z,43.56
2022-08-20T07:34:26.701Z,45.77
2022-08-20T07:39:30.546Z,43.27
2022-08-20T07:44:38.420Z,42.85
2022-08-20T07:49:43.320Z,42.39
2022-08-20T07:54:46.990Z,42.18
2022-08-20T07:59:50.420Z,41.68
2022-08-20T08:04:56.731Z,40.85
2022-08-20T08:10:01.336Z,43.52
2022-08-20T08:15:05.693Z,41.32
2022-08-20T08:20:12.333Z,42.98
2022-08-20T08:25:17.181Z,44.34
2022-08-20T08:30:20.829Z,42.61
2022-08-20T08:35:25.759Z,45.29
2022-08-20T08:40:30.955Z,44.27
2022-08-20T08:45:43.787Z,46.06
2022-08-20T08:50:53.499Z,45.08
2022-08-20T08:55:59.834Z,44.73
2022-08-20T09:01:08.159Z,44.52
2022-08-20T09:06:20.425Z,42.84
2022-08-20T09:11:25.269Z,44.25
2022-08-20T09:16:37.392Z,45.44
2022-08-20T09:21:53.797Z,46.68
2022-08-20T09:26:57.265Z,46.61
2022-08-20T09:32:08.253Z,47.05
2022-08-20T09:37:14.867Z,48.78
2022-08-20T09:42:20.338Z,45.91
2022-08-20T09:47:23.933Z,47.41
2022-08-20T09:52:32.199Z,43.23
2022-08-20T09:57:35.994Z,42.00
2022-08-20T10:02:39.898Z,41.78
2022-08-20T10:07:44.728Z,43.71
2022-08-20T10:12:50.578Z,41.95
2022-08-20T10:17:58.295Z,40.53
2022-08-20T10:23:03.867Z,40.61
2022-08-20T10:28:07.623Z,40.61
2022-08-20T10:33:11.078Z,38.79
2022-08-20T10:38:15.866Z,38.58
2022-08-20T10:43:19.299Z,39.87
2022-08-20T10:48:23.201Z,38.74
2022-08-20T10:53:28.104Z,40.47
2022-08-20T10:58:39.653Z,40.24
2022-08-20T11:03:44.784Z,44.76
2022-08-20T11:08:49.678Z,47.49
2022-08-20T11:13:53.147Z,52.68
2022-08-20T11:18:56.587Z,52.76
2022-08-20T11:24:03.057Z,53.57
2022-08-20T11:29:06.765Z,54.33
2022-08-20T11:34:12.734Z,54.72
2022-08-20T11:39:17.811Z,53.98
2022-08-20T11:44:21.818Z,53.48
2022-08-20T11:49:25.276Z,53.61
2022-08-20T11:54:31.691Z,53.65
2022-08-20T11:59:35.255Z,55.62
2022-08-20T12:04:38.692Z,53.93
2022-08-20T12:09:50.708Z,53.00
2022-08-20T12:14:55.701Z,51.97
2022-08-20T12:20:00.857Z,51.17
2022-08-20T12:25:07.213Z,51.67
2022-08-20T12:30:13.353Z,49.61
2022-08-20T12:35:18.295Z,45.13
2022-08-20T12:40:31.774Z,44.71
2022-08-20T12:45:37.555Z,44.59
2022-08-20T12:50:42.710Z,43.94
2022-08-20T12:55:47.570Z,43.63
2022-08-20T13:00:51.470Z,41.87
2022-08-20T13:05:55.059Z,40.26
2022-08-20T13:10:59.880Z,40.64
2022-08-20T13:16:03.511Z,40.57
2022-08-20T13:21:07.196Z,39.32
2022-08-20T13:26:12.045Z,39.43
2022-08-20T13:31:15.515Z,39.23
2022-08-20T13:36:18.964Z,38.22
2022-08-20T13:41:23.891Z,36.60
2022-08-20T13:46:27.353Z,36.40
2022-08-20T13:51:31.094Z,36.47
2022-08-20T13:56:35.893Z,36.27
2022-08-20T14:01:39.397Z,34.25
2022-08-20T14:06:42.831Z,34.52
2022-08-20T14:11:47.633Z,33.82
2022-08-20T14:16:51.122Z,35.07
2022-08-20T14:21:54.585Z,34.94
2022-08-20T14:27:01.046Z,34.21
2022-08-20T14:32:05.574Z,35.32
2022-08-20T14:37:18.226Z,36.17
2022-08-20T14:42:23.870Z,37.75
2022-08-20T14:47:29.672Z,36.89
2022-08-20T14:52:36.420Z,36.38
2022-08-20T14:57:41.671Z,38.16
2022-08-20T15:02:45.943Z,36.81
2022-08-20T15:07:51.738Z,35.75
2022-08-20T15:12:57.150Z,36.05
2022-08-20T15:18:01.295Z,36.76
2022-08-20T15:23:05.743Z,36.02
2022-08-20T15:28:11.074Z,35.93
2022-08-20T15:33:14.624Z,35.59
2022-08-20T15:38:18.147Z,36.16
2022-08-20T15:43:22.982Z,36.35
2022-08-20T15:48:35.038Z,35.73
2022-08-20T15:53:44.515Z,36.21
2022-08-20T15:58:54.948Z,36.45
2022-08-20T16:04:15.846Z,36.45
2022-08-20T16:09:34.761Z,35.55
2022-08-20T16:14:42.607Z,36.15
2022-08-20T16:19:52.820Z,34.84
2022-08-20T16:24:56.900Z,34.93
2022-08-20T16:30:05.853Z,35.06
2022-08-20T16:35:29.910Z,33.79
2022-08-20T16:40:35.936Z,34.58
2022-08-20T16:45:50.824Z,34.30
2022-08-20T16:50:58.916Z,34.76
2022-08-20T16:56:02.524Z,34.99
2022-08-20T17:01:10.519Z,34.81
2022-08-20T17:06:21.300Z,35.12
2022-08-20T17:11:28.987Z,35.94
2022-08-20T17:16:36.533Z,37.72
2022-08-20T17:21:40.768Z,37.19
2022-08-20T17:26:47.004Z,37.58
2022-08-20T17:31:53.805Z,36.81
2022-08-20T17:36:59.002Z,36.74
2022-08-20T17:42:06.327Z,37.27
2022-08-20T17:47:15.979Z,37.25
2022-08-20T17:52:28.306Z,36.26
2022-08-20T17:57:37.901Z,36.97
2022-08-20T18:02:43.177Z,36.06
2022-08-20T18:07:59.697Z,36.59
2022-08-20T18:13:07.299Z,35.27
2022-08-20T18:18:26.937Z,34.33
2022-08-20T18:23:34.375Z,34.32
2022-08-20T18:28:39.940Z,34.27
2022-08-20T18:33:45.507Z,35.19
2022-08-20T18:39:00.548Z,34.42
2022-08-20T18:44:09.842Z,35.58
2022-08-20T18:49:14.895Z,36.13
2022-08-20T18:54:24.813Z,35.79
2022-08-20T18:59:28.449Z,34.70
2022-08-20T19:04:33.830Z,35.09
2022-08-20T19:10:04.974Z,34.92
2022-08-20T19:15:09.640Z,34.45
2022-08-20T19:20:18.984Z,34.14
2022-08-20T19:25:29.331Z,34.53
2022-08-20T19:30:35.899Z,34.91
2022-08-20T19:35:41.223Z,34.84
2022-08-20T19:40:46.195Z,35.87
2022-08-20T19:45:52.392Z,35.79
2022-08-20T19:51:03.308Z,36.11
2022-08-20T19:56:11.244Z,35.97
2022-08-20T20:01:19.205Z,35.90
2022-08-20T20:06:25.522Z,35.73
2022-08-20T20:11:32.992Z,35.79
2022-08-20T20:16:38.762Z,37.30
2022-08-20T20:21:45.300Z,36.71
2022-08-20T20:26:49.432Z,38.27
2022-08-20T20:31:54.794Z,37.64
2022-08-20T20:37:06.660Z,37.03
2022-08-20T20:42:11.623Z,35.97
2022-08-20T20:47:19.496Z,35.98
2022-08-20T20:52:28.369Z,36.11
2022-08-20T20:57:37.866Z,36.05
2022-08-20T21:02:42.690Z,37.31
2022-08-20T21:07:50.216Z,36.87
2022-08-20T21:12:54.548Z,37.17
2022-08-20T21:18:00.680Z,37.30
2022-08-20T21:23:05.671Z,37.76
2022-08-20T21:28:09.479Z,37.23
2022-08-20T21:33:12.882Z,37.25
2022-08-20T21:38:17.746Z,37.73
2022-08-20T21:43:21.270Z,37.64
2022-08-20T21:48:27.354Z,38.38
2022-08-20T21:53:32.210Z,38.86
2022-08-20T21:58:36.671Z,38.84
2022-08-20T22:03:41.146Z,39.23
2022-08-20T22:08:46.102Z,40.08
2022-08-20T22:13:49.544Z,40.77
2022-08-20T22:18:53.795Z,40.19
2022-08-20T22:24:00.735Z,39.95
2022-08-20T22:29:05.424Z,40.82
2022-08-20T22:34:09.640Z,41.36
2022-08-20T22:39:14.725Z,41.37
2022-08-20T22:44:18.374Z,41.80
2022-08-20T22:49:23.577Z,41.75
2022-08-20T22:54:28.857Z,42.62
2022-08-20T22:59:32.438Z,42.81
2022-08-20T23:04:37.614Z,43.46
2022-08-20T23:09:43.427Z,43.66
2022-08-20T23:14:47.127Z,44.74
2022-08-20T23:19:51.181Z,44.84
2022-08-20T23:25:00.321Z,45.40
2022-08-20T23:30:04.785Z,45.67
2022-08-20T23:35:09.783Z,46.46
2022-08-20T23:40:16.609Z,46.76
2022-08-20T23:45:21.759Z,47.44
2022-08-20T23:50:28.727Z,46.75
2022-08-20T23:55:33.880Z,47.43
